Time;durP1;ratioP1;P1;durP2;ratioP2;P2;SDS_P1;SDS_P2;PMS_P1;PMS_P2;Temp;Humidity;BMP_temperature;BMP_pressure;BME280_temperature;BME280_humidity;BME280_pressure;Samples;Min_cycle;Max_cycle;Signal;HPM_P1;HPM_P2
2021/11/16 00:02:04;;;;;;;9.23;5.93;;;11.50;72.60;;;;;;2316607;54;20933;-71
2021/11/16 00:04:33;;;;;;;10.13;5.65;;;11.50;72.60;;;;;;2559487;53;20968;-71
2021/11/16 00:06:59;;;;;;;10.38;5.57;;;11.50;72.50;;;;;;2527755;53;20971;-72
2021/11/16 00:09:26;;;;;;;12.50;6.07;;;11.50;72.60;;;;;;2319983;54;20985;-71
2021/11/16 00:11:52;;;;;;;10.77;6.07;;;11.50;72.60;;;;;;2318985;54;20981;-71
2021/11/16 00:14:19;;;;;;;9.52;5.55;;;11.50;72.60;;;;;;2321711;54;20998;-71
2021/11/16 00:16:45;;;;;;;11.00;5.47;;;11.50;72.60;;;;;;2317968;54;20976;-72
2021/11/16 00:19:14;;;;;;;9.95;5.62;;;11.50;72.50;;;;;;2544323;53;21021;-71
2021/11/16 00:21:53;;;;;;;10.20;6.05;;;11.50;72.50;;;;;;2315554;53;21021;-71
2021/11/16 00:24:22;;;;;;;10.52;6.03;;;11.50;72.10;;;;;;2326373;54;21061;-71
2021/11/16 00:26:48;;;;;;;10.48;5.87;;;11.50;72.50;;;;;;2322339;54;21013;-70
2021/11/16 00:29:16;;;;;;;9.95;5.47;;;11.50;72.50;;;;;;2316036;54;20985;-70
2021/11/16 00:31:43;;;;;;;10.13;6.10;;;11.40;72.40;;;;;;2317757;54;20956;-71
2021/11/16 00:34:09;;;;;;;10.30;6.05;;;11.50;72.40;;;;;;2328099;54;20988;-71
2021/11/16 00:36:36;;;;;;;11.30;6.97;;;11.40;72.30;;;;;;2550338;53;21104;-71
2021/11/16 00:39:03;;;;;;;13.43;7.55;;;11.40;72.30;;;;;;2314987;54;21365;-71
2021/11/16 00:41:30;;;;;;;10.15;6.18;;;11.40;72.30;;;;;;2329451;54;21069;-71
2021/11/16 00:43:57;;;;;;;10.38;6.30;;;11.40;72.40;;;;;;2319823;54;20949;-71
2021/11/16 00:46:23;;;;;;;10.50;5.50;;;11.50;72.50;;;;;;2547273;53;21015;-71
2021/11/16 00:48:50;;;;;;;10.70;6.22;;;11.50;72.60;;;;;;2572551;53;21527;-71
2021/11/16 00:51:16;;;;;;;13.35;6.35;;;11.40;72.50;;;;;;2315642;54;20962;-71
2021/11/16 00:53:42;;;;;;;10.05;5.47;;;11.40;72.50;;;;;;2555304;53;20960;-71
2021/11/16 00:56:09;;;;;;;9.13;5.07;;;11.40;72.50;;;;;;2322206;54;20969;-72
2021/11/16 00:58:36;;;;;;;10.23;4.82;;;11.40;72.60;;;;;;2550963;53;20969;-70
2021/11/16 01:01:02;;;;;;;9.10;5.03;;;11.40;72.50;;;;;;2552847;53;21878;-72
2021/11/16 01:03:29;;;;;;;11.07;5.93;;;11.40;72.50;;;;;;2324627;54;21032;-71
2021/11/16 01:06:01;;;;;;;10.45;5.57;;;11.40;72.50;;;;;;2324306;54;20937;-71
2021/11/16 01:08:28;;;;;;;11.68;5.85;;;11.40;72.20;;;;;;2318505;54;20981;-71
2021/11/16 01:10:54;;;;;;;10.68;5.50;;;11.40;72.40;;;;;;2312339;53;20977;-71
2021/11/16 01:13:21;;;;;;;10.50;5.97;;;11.40;72.40;;;;;;2550886;53;21021;-71
2021/11/16 01:15:50;;;;;;;8.63;4.93;;;11.30;72.20;;;;;;2316500;54;21035;-70
2021/11/16 01:18:18;;;;;;;10.82;5.90;;;11.30;72.20;;;;;;2327913;54;20953;-71
2021/11/16 01:20:45;;;;;;;8.70;4.80;;;11.30;72.40;;;;;;2320035;54;20993;-71
2021/11/16 01:23:14;;;;;;;9.82;5.40;;;11.30;72.40;;;;;;2315790;54;20944;-71
2021/11/16 01:25:43;;;;;;;10.77;5.65;;;11.30;72.40;;;;;;2540284;53;21015;-72
2021/11/16 01:28:12;;;;;;;13.20;7.60;;;11.30;72.50;;;;;;2322501;54;20957;-70
2021/11/16 01:30:45;;;;;;;10.95;6.47;;;11.30;72.50;;;;;;2553683;53;20965;-71
2021/11/16 01:33:14;;;;;;;10.85;5.95;;;11.30;72.40;;;;;;2319757;54;21091;-71
2021/11/16 01:35:45;;;;;;;11.38;5.97;;;11.40;72.70;;;;;;2324826;54;21013;-71
2021/11/16 01:38:15;;;;;;;10.73;5.75;;;11.30;72.50;;;;;;2319669;54;21022;-71
2021/11/16 01:40:43;;;;;;;12.00;6.12;;;11.30;72.60;;;;;;2550526;53;21116;-71
2021/11/16 01:43:10;;;;;;;10.32;5.53;;;11.30;72.60;;;;;;2553665;53;20985;-71
2021/11/16 01:45:51;;;;;;;10.57;5.43;;;11.30;72.70;;;;;;2319449;54;21399;-71
2021/11/16 01:48:18;;;;;;;10.65;5.68;;;11.30;72.70;;;;;;2318630;54;20997;-71
2021/11/16 01:50:44;;;;;;;9.38;5.28;;;11.30;72.70;;;;;;2552262;53;20942;-71
2021/11/16 01:53:13;;;;;;;9.73;5.00;;;11.30;72.70;;;;;;2320585;54;21048;-71
2021/11/16 01:55:39;;;;;;;7.37;3.75;;;11.30;72.80;;;;;;2551995;53;21028;-71
2021/11/16 01:58:06;;;;;;;7.43;4.05;;;11.30;72.80;;;;;;2323907;54;20993;-71
2021/11/16 02:00:35;;;;;;;7.68;4.05;;;11.30;72.80;;;;;;2320515;54;20957;-71
2021/11/16 02:03:03;;;;;;;8.82;4.45;;;11.30;72.80;;;;;;2559323;53;21816;-71
2021/11/16 02:05:46;;;;;;;9.60;4.45;;;11.30;72.80;;;;;;2322367;54;20956;-70
2021/11/16 02:08:13;;;;;;;7.15;4.20;;;11.30;72.60;;;;;;2553952;53;20929;-71
2021/11/16 02:10:41;;;;;;;8.20;4.25;;;11.30;72.80;;;;;;2553272;53;20973;-71
2021/11/16 02:13:08;;;;;;;9.90;4.40;;;11.40;72.90;;;;;;2320530;54;21477;-70
2021/11/16 02:15:37;;;;;;;10.35;4.28;;;11.30;72.70;;;;;;2312488;54;20969;-71
2021/11/16 02:18:07;;;;;;;8.90;4.60;;;11.30;72.50;;;;;;2567012;53;21914;-70
2021/11/16 02:20:34;;;;;;;7.68;4.22;;;11.30;72.40;;;;;;2324050;54;21033;-71
2021/11/16 02:23:01;;;;;;;7.28;4.22;;;11.30;72.50;;;;;;2558986;53;20964;-71
2021/11/16 02:25:27;;;;;;;8.50;4.62;;;11.30;72.60;;;;;;2317230;54;21091;-71
2021/11/16 02:27:54;;;;;;;8.10;4.03;;;11.30;72.60;;;;;;2553237;53;20984;-71
2021/11/16 02:30:24;;;;;;;7.62;4.30;;;11.30;72.60;;;;;;2316329;54;20965;-70
2021/11/16 02:32:52;;;;;;;9.18;5.32;;;11.30;72.50;;;;;;2312073;54;21027;-71
2021/11/16 02:35:19;;;;;;;8.25;4.82;;;11.30;72.50;;;;;;2323552;54;20940;-71
2021/11/16 02:37:48;;;;;;;8.30;4.93;;;11.30;72.40;;;;;;2325338;54;20984;-70
2021/11/16 02:40:15;;;;;;;8.15;4.65;;;11.30;72.50;;;;;;2306593;54;21014;-70
2021/11/16 02:42:41;;;;;;;8.82;4.72;;;11.30;72.50;;;;;;2321947;54;21002;-71
2021/11/16 02:45:08;;;;;;;8.38;4.22;;;11.30;72.60;;;;;;2318088;54;21344;-71
2021/11/16 02:47:34;;;;;;;7.62;4.35;;;11.30;72.60;;;;;;2550113;53;20996;-71
2021/11/16 02:50:00;;;;;;;7.95;4.57;;;11.30;72.60;;;;;;2314382;54;21030;-71
2021/11/16 02:52:27;;;;;;;7.45;3.97;;;11.20;72.50;;;;;;2556378;53;20945;-71
2021/11/16 02:54:54;;;;;;;8.85;4.50;;;11.20;72.50;;;;;;2551913;53;21801;-72
2021/11/16 02:57:20;;;;;;;8.88;4.68;;;11.20;72.60;;;;;;2319100;54;21012;-71
2021/11/16 02:59:46;;;;;;;8.52;4.57;;;11.20;73.20;;;;;;2323155;54;21833;-71
2021/11/16 03:02:13;;;;;;;9.32;4.30;;;11.20;72.60;;;;;;2321451;54;21837;-71
2021/11/16 03:04:44;;;;;;;6.97;4.10;;;11.20;72.50;;;;;;2558090;53;21151;-71
2021/11/16 03:07:27;;;;;;;7.72;4.40;;;11.20;72.60;;;;;;2556727;53;21867;-71
2021/11/16 03:09:54;;;;;;;7.50;4.55;;;11.20;72.60;;;;;;2321294;54;21029;-71
2021/11/16 03:12:21;;;;;;;9.15;4.95;;;11.20;72.60;;;;;;2565972;53;22015;-71
2021/11/16 03:14:47;;;;;;;9.45;4.80;;;11.20;72.50;;;;;;2328365;54;21536;-71
2021/11/16 03:17:13;;;;;;;9.05;4.50;;;11.20;72.40;;;;;;2320648;54;21022;-71
2021/11/16 03:19:40;;;;;;;9.55;4.82;;;11.20;72.40;;;;;;2322525;54;20933;-71
2021/11/16 03:22:06;;;;;;;7.60;4.57;;;11.20;72.40;;;;;;2327024;54;21108;-71
2021/11/16 03:24:35;;;;;;;8.35;4.40;;;11.20;72.30;;;;;;2333955;54;20980;-71
2021/11/16 03:27:07;;;;;;;8.95;4.78;;;11.20;72.30;;;;;;2321842;54;20936;-71
2021/11/16 03:29:34;;;;;;;8.47;4.37;;;11.20;72.40;;;;;;2540130;53;21019;-70
2021/11/16 03:32:08;;;;;;;8.05;4.65;;;11.20;72.40;;;;;;2321571;54;21088;-71
2021/11/16 03:34:34;;;;;;;8.07;4.05;;;11.20;72.50;;;;;;2330332;54;21082;-71
2021/11/16 03:37:01;;;;;;;7.07;4.12;;;11.20;72.60;;;;;;2329073;54;20981;-71
2021/11/16 03:39:31;;;;;;;6.28;3.95;;;11.00;72.40;;;;;;2322214;54;21099;-71
2021/11/16 03:41:57;;;;;;;7.90;3.78;;;11.10;72.60;;;;;;2328228;54;21861;-71
2021/11/16 03:44:25;;;;;;;6.03;3.37;;;11.10;72.60;;;;;;2307290;53;20958;-71
2021/11/16 03:46:54;;;;;;;6.20;3.42;;;11.20;72.80;;;;;;2321551;54;20965;-71
2021/11/16 03:49:20;;;;;;;6.80;3.85;;;11.10;72.70;;;;;;2326422;54;20992;-70
2021/11/16 03:51:47;;;;;;;8.20;3.60;;;11.20;72.80;;;;;;2559989;53;21065;-71
2021/11/16 03:54:14;;;;;;;7.62;4.68;;;11.20;72.90;;;;;;2316193;53;20948;-71
2021/11/16 03:56:40;;;;;;;6.28;3.58;;;11.20;72.80;;;;;;2313655;54;21072;-71
2021/11/16 03:59:07;;;;;;;8.05;4.32;;;11.20;72.80;;;;;;2316651;54;21009;-71
2021/11/16 04:01:34;;;;;;;6.90;3.67;;;11.20;72.90;;;;;;2567535;53;21009;-71
2021/11/16 04:04:01;;;;;;;7.47;3.75;;;11.20;72.80;;;;;;2324885;54;20969;-71
2021/11/16 04:06:27;;;;;;;6.65;3.33;;;11.20;72.80;;;;;;2335161;54;21025;-71
2021/11/16 04:08:54;;;;;;;7.30;4.15;;;11.20;72.90;;;;;;2317119;54;20928;-72
2021/11/16 04:11:21;;;;;;;6.68;3.50;;;11.20;72.80;;;;;;2329497;54;21910;-71
2021/11/16 04:13:49;;;;;;;5.62;3.35;;;11.20;72.70;;;;;;2319115;54;21884;-70
2021/11/16 04:16:15;;;;;;;7.68;3.62;;;11.20;72.70;;;;;;2319691;54;21028;-70
2021/11/16 04:18:44;;;;;;;6.60;3.60;;;11.20;72.70;;;;;;2331632;53;20998;-71
2021/11/16 04:21:10;;;;;;;5.93;3.35;;;11.20;72.70;;;;;;2315262;54;21000;-71
2021/11/16 04:23:36;;;;;;;6.40;3.53;;;11.20;72.70;;;;;;2553404;53;20965;-71
2021/11/16 04:26:03;;;;;;;6.68;3.50;;;11.20;72.80;;;;;;2320603;54;20973;-71
2021/11/16 04:28:31;;;;;;;5.68;2.83;;;11.00;72.60;;;;;;2315983;54;21048;-71
2021/11/16 04:30:59;;;;;;;5.53;2.92;;;11.20;72.80;;;;;;2553824;53;21821;-71
2021/11/16 04:33:27;;;;;;;7.55;3.87;;;11.20;72.70;;;;;;2327216;54;20981;-71
2021/11/16 04:35:54;;;;;;;6.85;3.85;;;11.20;72.70;;;;;;2318139;54;21509;-71
2021/11/16 04:38:21;;;;;;;9.07;4.78;;;11.20;72.70;;;;;;2548900;53;21301;-71
2021/11/16 04:40:52;;;;;;;6.15;3.35;;;11.20;72.80;;;;;;2319305;54;20940;-71
2021/11/16 04:43:21;;;;;;;7.68;3.70;;;11.20;72.80;;;;;;2321584;54;21000;-71
2021/11/16 04:45:52;;;;;;;6.15;3.65;;;11.20;72.90;;;;;;2559411;53;21029;-71
2021/11/16 04:48:34;;;;;;;5.53;2.87;;;11.20;72.90;;;;;;2328060;54;21513;-71
2021/11/16 04:51:24;;;;;;;5.85;3.35;;;11.20;72.80;;;;;;2317299;54;20949;-71
2021/11/16 05:04:25;;;;;;;4.65;1.98;;;11.20;72.90;;;;;;2325309;54;21000;-71
2021/11/16 05:06:54;;;;;;;5.07;2.78;;;11.20;72.80;;;;;;2546789;53;21039;-71
2021/11/16 05:09:31;;;;;;;5.18;2.67;;;11.20;72.90;;;;;;2326025;54;21473;-71
2021/11/16 05:11:58;;;;;;;6.78;3.53;;;11.20;72.70;;;;;;2319607;54;21536;-71
2021/11/16 05:14:26;;;;;;;6.28;3.40;;;11.20;72.90;;;;;;2525638;53;21928;-71
2021/11/16 05:16:55;;;;;;;6.28;3.10;;;11.20;73.00;;;;;;2316125;54;21529;-71
2021/11/16 05:19:21;;;;;;;5.40;3.10;;;11.20;73.00;;;;;;2549823;53;20992;-71
2021/11/16 05:21:49;;;;;;;6.30;3.60;;;11.30;73.10;;;;;;2321669;54;21023;-70
2021/11/16 05:24:16;;;;;;;5.03;3.03;;;11.20;73.00;;;;;;2555997;53;21032;-71
2021/11/16 05:26:44;;;;;;;5.55;2.92;;;11.20;73.00;;;;;;2337391;54;21048;-71
2021/11/16 05:29:10;;;;;;;6.70;3.50;;;11.20;73.00;;;;;;2320742;54;20983;-71
2021/11/16 05:31:38;;;;;;;5.03;2.72;;;11.20;72.90;;;;;;2322299;54;22020;-71
2021/11/16 05:34:05;;;;;;;6.12;3.62;;;11.20;72.90;;;;;;2329843;54;21029;-69
2021/11/16 05:36:34;;;;;;;6.70;3.65;;;11.20;72.90;;;;;;2326281;54;21096;-71
2021/11/16 05:39:01;;;;;;;5.85;3.12;;;11.20;72.80;;;;;;2322102;54;20993;-70
2021/11/16 05:41:29;;;;;;;5.93;3.15;;;11.20;72.80;;;;;;2552388;53;20936;-71
2021/11/16 05:43:55;;;;;;;7.00;3.15;;;11.20;72.80;;;;;;2549636;53;21060;-71
2021/11/16 05:46:22;;;;;;;7.47;3.78;;;11.20;72.80;;;;;;2325618;54;21449;-71
2021/11/16 05:48:49;;;;;;;6.40;3.33;;;11.10;72.80;;;;;;2564260;53;21008;-71
2021/11/16 05:51:18;;;;;;;5.95;3.60;;;11.20;72.90;;;;;;2320928;54;21847;-71
2021/11/16 05:53:50;;;;;;;7.07;4.00;;;11.10;72.90;;;;;;2305561;54;20927;-71
2021/11/16 05:56:20;;;;;;;6.55;3.78;;;11.10;72.90;;;;;;2314260;54;21069;-71
2021/11/16 05:58:49;;;;;;;10.45;5.12;;;11.10;72.90;;;;;;2322547;54;21064;-71
2021/11/16 06:01:22;;;;;;;10.27;5.37;;;11.10;72.80;;;;;;2319528;54;20977;-71
2021/11/16 06:03:52;;;;;;;9.30;5.05;;;11.10;72.60;;;;;;2526883;53;21874;-71
2021/11/16 06:06:25;;;;;;;9.18;5.03;;;11.10;72.50;;;;;;2549440;53;21033;-71
2021/11/16 06:08:53;;;;;;;10.20;5.90;;;11.10;72.30;;;;;;2552832;53;20969;-72
2021/11/16 06:11:20;;;;;;;11.95;6.43;;;11.10;72.50;;;;;;2317591;54;21054;-71
2021/11/16 06:13:47;;;;;;;10.57;5.80;;;11.10;72.60;;;;;;2318494;54;21406;-71
2021/11/16 06:16:16;;;;;;;11.68;6.87;;;11.10;73.40;;;;;;2323776;54;21032;-71
2021/11/16 06:18:50;;;;;;;10.15;5.80;;;11.10;72.70;;;;;;2556161;53;21083;-71
2021/11/16 06:21:17;;;;;;;9.15;5.60;;;11.20;72.80;;;;;;2332864;54;21989;-70
2021/11/16 06:23:43;;;;;;;9.23;5.80;;;11.10;72.90;;;;;;2554240;53;20964;-71
2021/11/16 06:26:16;;;;;;;9.13;5.47;;;11.10;72.90;;;;;;2553034;53;21005;-72
2021/11/16 06:28:42;;;;;;;7.43;4.68;;;11.10;72.80;;;;;;2325436;54;20985;-72
2021/11/16 06:31:11;;;;;;;9.23;5.45;;;11.10;72.90;;;;;;2547873;53;21028;-71
2021/11/16 06:33:40;;;;;;;7.75;4.90;;;11.10;72.90;;;;;;2301866;54;20973;-71
2021/11/16 06:36:07;;;;;;;10.52;5.70;;;11.10;72.90;;;;;;2319395;54;21008;-71
2021/11/16 06:38:33;;;;;;;11.02;6.30;;;11.10;73.60;;;;;;2554736;53;21079;-71
2021/11/16 06:40:59;;;;;;;11.90;6.05;;;11.10;72.90;;;;;;2322297;54;20960;-71
2021/11/16 06:43:27;;;;;;;10.73;6.10;;;11.10;72.90;;;;;;2322847;54;21007;-71
2021/11/16 06:45:56;;;;;;;11.38;6.43;;;11.10;72.90;;;;;;2318905;54;21021;-72
2021/11/16 06:48:22;;;;;;;11.10;6.35;;;11.10;72.90;;;;;;2299119;54;21032;-70
2021/11/16 06:50:49;;;;;;;12.55;7.15;;;11.10;72.90;;;;;;2315704;54;20960;-71
2021/11/16 06:53:31;;;;;;;12.23;6.93;;;11.10;73.00;;;;;;2552745;53;21577;-71
2021/11/16 06:56:04;;;;;;;10.02;6.00;;;11.10;72.80;;;;;;2315434;54;20968;-70
2021/11/16 06:58:32;;;;;;;11.35;6.57;;;11.10;72.90;;;;;;2341697;54;20973;-71
2021/11/16 07:01:01;;;;;;;12.68;6.65;;;11.10;73.00;;;;;;2326913;54;20945;-71
2021/11/16 07:03:29;;;;;;;13.25;7.65;;;11.10;73.00;;;;;;2567097;53;20928;-71
2021/11/16 07:05:59;;;;;;;13.27;7.57;;;11.10;73.00;;;;;;2317726;54;20952;-71
2021/11/16 07:08:43;;;;;;;13.20;7.50;;;11.10;72.90;;;;;;2325073;54;21698;-71
2021/11/16 07:11:18;;;;;;;14.87;7.82;;;11.10;72.70;;;;;;2328875;54;20981;-71
2021/11/16 07:15:37;;;;;;;16.33;8.68;;;11.10;73.10;;;;;;2549040;53;20969;-71
2021/11/16 07:18:04;;;;;;;12.50;7.18;;;11.10;72.10;;;;;;2557515;53;20964;-71
2021/11/16 07:20:31;;;;;;;15.50;7.93;;;11.10;73.00;;;;;;2564909;53;21379;-71
2021/11/16 07:22:59;;;;;;;14.30;8.32;;;11.10;73.00;;;;;;2553234;53;21017;-71
2021/11/16 07:25:28;;;;;;;15.40;8.18;;;11.10;72.90;;;;;;2547284;53;21922;-71
2021/11/16 07:27:57;;;;;;;14.82;8.02;;;11.10;73.00;;;;;;2319039;54;21680;-72
2021/11/16 07:30:35;;;;;;;14.80;8.45;;;11.10;73.10;;;;;;2551754;53;21056;-71
2021/11/16 07:33:19;;;;;;;14.40;8.25;;;11.10;73.00;;;;;;2326901;54;21582;-71
2021/11/16 07:35:48;;;;;;;13.80;8.23;;;11.10;73.10;;;;;;2553745;53;21471;-71
2021/11/16 07:38:31;;;;;;;14.23;7.82;;;11.10;73.20;;;;;;2533302;53;21053;-71
2021/11/16 07:41:04;;;;;;;13.70;7.60;;;11.10;73.20;;;;;;2324001;54;21478;-71
2021/11/16 07:43:31;;;;;;;15.35;7.65;;;11.10;73.00;;;;;;2547255;53;22078;-71
2021/11/16 07:46:04;;;;;;;13.05;7.65;;;11.10;73.10;;;;;;2544820;53;20999;-71
2021/11/16 07:48:50;;;;;;;13.23;7.45;;;11.10;73.30;;;;;;2314494;54;21552;-71
2021/11/16 07:51:20;;;;;;;14.70;7.35;;;11.20;73.30;;;;;;2313345;54;20959;-71
2021/11/16 07:53:57;;;;;;;14.70;7.87;;;11.10;73.20;;;;;;2563247;53;20992;-71
2021/11/16 07:56:58;;;;;;;15.27;7.70;;;11.20;73.30;;;;;;2322993;54;21056;-71
2021/11/16 07:59:36;;;;;;;12.88;6.72;;;11.20;73.30;;;;;;2315820;54;21041;-71
2021/11/16 08:02:34;;;;;;;13.52;7.65;;;11.20;73.30;;;;;;2538586;53;21016;-71
2021/11/16 08:05:37;;;;;;;14.57;7.53;;;11.20;73.30;;;;;;2552464;53;20940;-71
2021/11/16 08:08:35;;;;;;;13.70;7.68;;;11.20;73.10;;;;;;2531598;53;21091;-71
2021/11/16 08:11:47;;;;;;;12.98;7.37;;;11.20;73.30;;;;;;2326652;54;21028;-71
2021/11/16 08:14:26;;;;;;;13.70;8.00;;;11.20;73.10;;;;;;2557851;53;20972;-71
2021/11/16 08:16:58;;;;;;;14.87;8.27;;;11.20;73.30;;;;;;2319632;54;20949;-71
2021/11/16 08:19:31;;;;;;;;;;;11.20;73.50;;;;;;2549231;53;21041;-71
2021/11/16 08:22:04;;;;;;;14.85;7.62;;;11.30;72.80;;;;;;2318397;54;20062;-71
2021/11/16 08:24:40;;;;;;;;;;;11.30;73.50;;;;;;2324218;54;21450;-71
2021/11/16 08:27:11;;;;;;;10.75;5.47;;;11.30;72.80;;;;;;2321461;54;20050;-71
2021/11/16 08:29:50;;;;;;;12.98;7.25;;;11.30;73.50;;;;;;2312415;55;20978;-71
2021/11/16 08:32:23;;;;;;;14.63;8.13;;;11.30;73.60;;;;;;2327899;54;21007;-71
2021/11/16 08:34:59;;;;;;;19.08;9.82;;;11.30;73.50;;;;;;2543055;53;20957;-72
2021/11/16 08:37:31;;;;;;;16.87;8.57;;;11.30;73.50;;;;;;2328717;54;20968;-71
2021/11/16 08:40:20;;;;;;;16.15;9.13;;;11.40;73.70;;;;;;2548923;53;20981;-71
2021/11/16 08:43:17;;;;;;;20.65;10.05;;;11.40;73.60;;;;;;2317866;54;20991;-72
2021/11/16 08:45:57;;;;;;;18.73;10.13;;;11.40;73.30;;;;;;2558383;53;20945;-71
2021/11/16 08:48:38;;;;;;;17.20;9.95;;;11.40;73.50;;;;;;2323848;54;21574;-71
2021/11/16 08:51:09;;;;;;;15.88;8.70;;;11.30;73.40;;;;;;2318092;54;20990;-70
2021/11/16 08:53:37;;;;;;;15.90;9.27;;;11.40;73.60;;;;;;2553633;53;21541;-71
2021/11/16 08:56:16;;;;;;;16.12;9.05;;;11.40;73.60;;;;;;2322362;54;20977;-70
2021/11/16 08:58:47;;;;;;;14.05;7.85;;;11.40;73.30;;;;;;2331947;54;20952;-71
2021/11/16 09:01:15;;;;;;;19.23;9.95;;;11.40;73.50;;;;;;2315844;54;21119;-72
2021/11/16 09:03:43;;;;;;;22.17;11.93;;;11.40;73.40;;;;;;2337064;54;21026;-71
2021/11/16 09:06:20;;;;;;;20.85;10.95;;;11.40;73.10;;;;;;2322503;54;20921;-71
2021/11/16 09:09:00;;;;;;;17.27;9.90;;;11.40;72.70;;;;;;2575617;53;20949;-71
2021/11/16 09:11:26;;;;;;;24.40;11.68;;;11.40;72.90;;;;;;2322009;54;21356;-71
2021/11/16 09:13:55;;;;;;;21.30;11.63;;;11.40;73.20;;;;;;2318779;54;21454;-71
2021/11/16 09:16:28;;;;;;;20.35;11.23;;;11.40;73.00;;;;;;2549850;53;20976;-72
2021/11/16 09:18:57;;;;;;;16.65;9.57;;;11.40;72.70;;;;;;2553132;53;20960;-72
2021/11/16 09:21:25;;;;;;;21.02;11.23;;;11.40;72.90;;;;;;2319940;54;20984;-71
2021/11/16 09:24:06;;;;;;;19.55;10.63;;;11.40;72.90;;;;;;2325906;54;21575;-71
2021/11/16 09:26:55;;;;;;;18.62;9.85;;;11.40;72.90;;;;;;2313502;54;21033;-71
2021/11/16 09:29:22;;;;;;;19.60;10.10;;;11.40;73.10;;;;;;2322278;54;21948;-70
2021/11/16 09:32:05;;;;;;;17.45;9.60;;;11.40;73.20;;;;;;2320695;54;20965;-71
2021/11/16 09:34:33;;;;;;;20.90;10.20;;;11.40;73.00;;;;;;2321662;54;21000;-71
2021/11/16 09:37:03;;;;;;;;;;;11.50;73.30;;;;;;2414337;53;1749617;-71
2021/11/16 09:39:39;;;;;;;18.58;9.25;;;11.40;72.20;;;;;;2320116;54;20073;-71
2021/11/16 09:42:07;;;;;;;18.35;9.77;;;11.40;72.90;;;;;;2526295;53;20957;-70
2021/11/16 09:44:43;;;;;;;21.83;11.32;;;11.40;73.00;;;;;;2326309;54;20969;-70
2021/11/16 09:47:24;;;;;;;19.95;10.85;;;11.40;73.00;;;;;;2322859;54;21004;-71
2021/11/16 09:50:19;;;;;;;19.95;10.70;;;11.40;72.60;;;;;;2312119;54;21036;-71
2021/11/16 09:52:51;;;;;;;19.05;10.23;;;11.40;72.30;;;;;;2328482;54;20961;-71
2021/11/16 09:55:35;;;;;;;19.00;10.10;;;11.40;72.70;;;;;;2320081;54;21041;-71
2021/11/16 09:58:17;;;;;;;19.37;10.63;;;11.40;72.90;;;;;;2322178;54;21040;-71
2021/11/16 10:00:44;;;;;;;20.25;10.23;;;11.40;73.00;;;;;;2328118;54;21389;-71
2021/11/16 10:03:59;;;;;;;17.77;10.55;;;11.40;73.80;;;;;;2320595;54;21060;-71
2021/11/16 10:06:26;;;;;;;15.63;8.55;;;11.40;72.90;;;;;;2553614;53;20949;-71
2021/11/16 10:08:56;;;;;;;19.65;10.38;;;11.40;73.30;;;;;;2331939;54;20922;-71
2021/11/16 10:11:23;;;;;;;18.05;9.52;;;11.40;73.20;;;;;;2320912;54;21096;-71
2021/11/16 10:13:50;;;;;;;19.98;10.35;;;11.40;73.30;;;;;;2316154;54;21009;-71
2021/11/16 10:16:16;;;;;;;19.87;11.20;;;11.40;73.30;;;;;;2551699;53;20985;-70
2021/11/16 10:18:43;;;;;;;19.62;10.45;;;11.40;73.20;;;;;;2323355;54;20961;-71
2021/11/16 10:21:11;;;;;;;19.92;10.98;;;11.40;73.20;;;;;;2312675;54;20988;-71
2021/11/16 10:23:50;;;;;;;22.00;11.15;;;11.40;73.30;;;;;;2320727;54;20989;-71
2021/11/16 10:26:17;;;;;;;24.40;14.13;;;11.40;73.10;;;;;;2324731;54;21029;-70
2021/11/16 10:28:47;;;;;;;29.70;15.82;;;11.40;73.20;;;;;;2317644;54;20917;-71
2021/11/16 10:31:14;;;;;;;25.55;14.73;;;11.40;73.00;;;;;;2331991;54;21033;-71
2021/11/16 10:33:46;;;;;;;22.27;13.10;;;11.40;73.00;;;;;;2317595;53;20937;-71
2021/11/16 10:36:16;;;;;;;22.65;12.02;;;11.40;73.10;;;;;;2331999;53;20937;-71
2021/11/16 10:38:57;;;;;;;24.40;12.63;;;11.40;73.20;;;;;;2302515;54;21116;-71
2021/11/16 10:41:28;;;;;;;19.77;11.55;;;11.40;73.00;;;;;;2319981;54;22397;-71
2021/11/16 10:43:57;;;;;;;20.30;10.73;;;11.50;72.90;;;;;;2304411;54;21896;-71
2021/11/16 10:46:26;;;;;;;19.50;11.07;;;11.40;72.80;;;;;;2324347;54;21057;-71
2021/11/16 10:48:55;;;;;;;24.10;12.40;;;11.40;72.80;;;;;;2320671;54;21478;-71
2021/11/16 10:51:32;;;;;;;20.25;11.30;;;11.40;72.80;;;;;;2317057;54;20993;-70
2021/11/16 10:54:00;;;;;;;22.27;11.45;;;11.40;72.60;;;;;;2581570;53;20934;-71
2021/11/16 10:56:30;;;;;;;21.92;12.02;;;11.40;73.00;;;;;;2325145;54;21109;-71
2021/11/16 10:59:56;;;;;;;22.62;11.95;;;11.40;73.00;;;;;;2330776;54;21051;-71
2021/11/16 11:02:23;;;;;;;19.05;10.13;;;11.40;72.70;;;;;;2558921;53;20929;-72
2021/11/16 11:04:50;;;;;;;20.80;10.25;;;11.40;72.90;;;;;;2329945;54;20949;-71
2021/11/16 11:07:18;;;;;;;23.38;11.68;;;11.40;73.00;;;;;;2330506;54;20981;-71
2021/11/16 11:09:57;;;;;;;19.27;9.60;;;11.40;72.90;;;;;;2556294;53;21490;-71
2021/11/16 11:12:27;;;;;;;19.27;10.30;;;11.40;72.70;;;;;;2585586;53;21100;-71
2021/11/16 11:14:55;;;;;;;20.67;10.02;;;11.40;73.00;;;;;;2327597;54;21001;-71
2021/11/16 11:17:32;;;;;;;20.20;10.35;;;11.40;72.90;;;;;;2549833;53;20948;-71
2021/11/16 11:20:12;;;;;;;19.95;10.52;;;11.40;72.60;;;;;;2319838;54;21512;-72
2021/11/16 11:22:42;;;;;;;22.95;11.05;;;11.40;72.60;;;;;;2327108;54;20961;-71
2021/11/16 11:25:24;;;;;;;19.05;10.50;;;11.40;72.80;;;;;;2318475;54;21033;-71
2021/11/16 11:28:00;;;;;;;16.08;8.80;;;11.40;72.80;;;;;;2319498;54;20952;-71
2021/11/16 11:30:26;;;;;;;17.00;9.07;;;11.40;72.80;;;;;;2312166;54;21015;-72
2021/11/16 11:32:53;;;;;;;18.87;9.75;;;11.40;73.00;;;;;;2567680;53;20990;-71
2021/11/16 11:35:25;;;;;;;16.50;8.68;;;11.40;72.90;;;;;;2308102;54;21092;-70
2021/11/16 11:37:53;;;;;;;17.50;8.68;;;11.40;72.90;;;;;;2333232;54;20989;-71
2021/11/16 11:40:33;;;;;;;15.13;8.40;;;11.40;73.00;;;;;;2549805;53;21012;-71
2021/11/16 11:43:09;;;;;;;11.82;6.12;;;11.40;72.80;;;;;;2321980;54;20981;-71
2021/11/16 11:45:41;;;;;;;14.02;7.15;;;11.40;72.90;;;;;;2327666;54;22057;-70
2021/11/16 11:48:26;;;;;;;11.45;6.20;;;11.40;73.00;;;;;;2319676;54;20993;-70
2021/11/16 11:50:58;;;;;;;11.93;6.55;;;11.50;72.80;;;;;;2318586;54;20970;-71
2021/11/16 11:53:34;;;;;;;10.00;6.12;;;11.50;73.20;;;;;;2320606;54;21016;-71
2021/11/16 11:56:05;;;;;;;11.25;6.15;;;11.50;73.30;;;;;;2317727;54;21517;-72
2021/11/16 11:58:33;;;;;;;13.43;7.10;;;11.50;73.30;;;;;;2326154;54;21959;-71
2021/11/16 12:01:06;;;;;;;11.98;6.68;;;11.50;73.20;;;;;;2322687;54;20924;-71
2021/11/16 12:03:36;;;;;;;12.07;6.68;;;11.50;73.20;;;;;;2323530;54;21056;-71
2021/11/16 12:06:04;;;;;;;14.30;7.37;;;11.50;74.00;;;;;;2328328;54;20953;-72
2021/11/16 12:08:30;;;;;;;13.80;7.20;;;11.50;73.40;;;;;;2328572;54;20950;-71
2021/11/16 12:11:00;;;;;;;13.70;7.43;;;11.60;73.50;;;;;;2321939;54;21500;-71
2021/11/16 12:13:27;;;;;;;12.18;6.35;;;11.60;73.20;;;;;;2320060;54;20965;-71
2021/11/16 12:16:14;;;;;;;11.95;6.75;;;11.60;73.20;;;;;;2318887;54;21048;-72
2021/11/16 12:18:42;;;;;;;11.57;6.50;;;11.60;72.80;;;;;;2568512;53;20969;-72
2021/11/16 12:24:41;;;;;;;12.95;6.90;;;11.60;73.10;;;;;;2320463;54;20945;-70
2021/11/16 12:27:07;;;;;;;9.63;5.78;;;11.60;72.50;;;;;;2575281;53;20984;-71
2021/11/16 12:29:49;;;;;;;10.35;5.90;;;11.60;73.00;;;;;;2552989;53;20945;-71
2021/11/16 12:32:37;;;;;;;14.63;7.43;;;11.60;72.80;;;;;;2319459;54;20978;-71
2021/11/16 12:35:44;;;;;;;13.38;7.00;;;11.60;72.40;;;;;;2552183;53;21025;-71
2021/11/16 12:38:16;;;;;;;12.40;6.37;;;11.60;72.10;;;;;;2328567;54;21063;-72
2021/11/16 12:40:44;;;;;;;15.07;7.50;;;11.80;72.80;;;;;;2325422;54;21017;-72
2021/11/16 12:43:25;;;;;;;10.50;5.95;;;11.60;72.70;;;;;;2334337;54;20988;-71
2021/11/16 12:46:01;;;;;;;12.65;6.20;;;11.60;72.30;;;;;;2317743;54;21537;-71
2021/11/16 12:48:50;;;;;;;11.20;5.85;;;11.60;72.60;;;;;;2321313;54;21000;-71
2021/11/16 12:51:18;;;;;;;10.93;5.40;;;11.60;72.10;;;;;;2552749;53;21887;-71
2021/11/16 12:54:02;;;;;;;9.52;5.15;;;11.60;72.40;;;;;;2321308;54;21036;-71
2021/11/16 12:58:26;;;;;;;11.50;5.80;;;11.60;72.20;;;;;;2325948;54;20981;-71
2021/11/16 13:00:55;;;;;;;8.27;4.55;;;11.60;71.50;;;;;;2330374;54;21096;-72
2021/11/16 13:04:23;;;;;;;8.48;4.85;;;11.60;72.50;;;;;;2330375;54;21021;-70
2021/11/16 13:07:26;;;;;;;9.85;4.62;;;11.50;72.00;;;;;;2550218;53;21033;-71
2021/11/16 13:10:16;;;;;;;8.52;4.37;;;11.60;72.20;;;;;;2328869;54;21045;-71
2021/11/16 13:13:03;;;;;;;9.07;4.25;;;11.50;72.00;;;;;;2323542;54;20953;-71
2021/11/16 13:15:41;;;;;;;8.15;4.25;;;11.50;72.20;;;;;;2551415;53;21064;-71
2021/11/16 13:24:56;;;;;;;9.70;5.72;;;11.50;72.50;;;;;;2301075;54;21104;-72
2021/11/16 13:27:50;;;;;;;6.40;3.50;;;11.50;72.80;;;;;;2554521;53;21009;-71
2021/11/16 13:30:21;;;;;;;6.00;3.10;;;11.60;72.00;;;;;;2313471;54;21197;-71